Terminal Aerodrome Forecast
Issued by NWS Chicago, IL

Home | Current Version | Previous Version | Graphics & Text | Print | Product List | Glossary On
Versions: 1 2 3 4 5 6 7 8 9 10 11 12 13 14 15 16 17 18 19 20 21 22 23 24 25 26 27 28 29 30 31 32
000
FTUS43 KLOT 200900 AAA
TAFRFD
TAF AMD
KRFD 200903Z 2009/2106 21012KT P6SM SCT150 BKN250
     FM201200 22012G19KT P6SM VCTS SCT040CB BKN120
     FM201500 22013G18KT P6SM VCSH SCT040 BKN100
      TEMPO 2016/2020 5SM -TSRA SCT015 BKN040CB
     FM210000 27010KT P6SM SCT040=

USA.gov is the U.S. government's official web portal to all federal, state and local government web resources and services.